Terminal Aerodrome Forecast
Issued by NWS Oklahoma City, OK

Home | Current Version | Previous Version | Text Only | Print | Product List | Glossary On
Versions: 1 2 3 4 5 6 7 8 9 10 11 12
000
FTUS44 KOUN 241133
TAFOUN
TAF
KOUN 241133Z 2412/2512 17007KT P6SM FEW150 SCT250
     FM241600 19011KT P6SM FEW050 FEW250
     FM250100 14006KT P6SM SCT250=

USA.gov is the U.S. government's official web portal to all federal, state and local government web resources and services.